Main page
METAR-TAF:

METAR-TAF

Airports :

Isfahan International Airport

Esfahān, Iran

latitude: 32-28N, longitude: 051-43E, elevation: 1590 m

Current weather observation

The report was made 28 minutes ago, at 23:30 UTC
Calm wind
Temperature 11°C
Humidity 66%
Pressure 1019 hPa
Visibility 10 km or more
no clouds below 1500 m and no cumulonimbus

METAR: OIFM 222330Z 00000KT CAVOK 11/05 Q1018 A3008

Time: 04:28 (23:58 UTC)

Forecast

The report was made 58 minutes ago, at 23:00 UTC
Forecast valid from 23 at 00 UTC to 24 at 06 UTC
Wind 3 kt from variable directions
Visibility: 8000 m
Few clouds at a height of 3500 ft
Becoming
from 23 at 02 UTC to 23 at 04 UTC
Visibility: 3000 m
haze
Becoming
from 23 at 06 UTC to 23 at 07 UTC
Wind 8 kt from the West
Visibility: 8000 m
Temporary
from 23 at 13 UTC to 23 at 17 UTC
Wind 12 kt from the East/Northeast

TAF: OIFM 222300Z 2300/2406 VRB03KT 8000 FEW035 BECMG 2302/2304 3000 HZ BECMG 2306/2307 28008KT 8000 TEMPO 2313/2317 06012KT

Weather observations and forecasts of more than 4000 airports (METAR and TAF reports).

The available stations are represented by yellow and red dots on the map.

Hover mouse over dot to see the name of the station.

Then click to see weather observations and forecasts.

To change the map : click on the green buttons with a black cross to zoom in, on the green button with a dash to zoom out, or on the green arrows for adjacent maps.


METAR-TAF: